TimePDT,TemperatureF,Dew PointF,Humidity,Sea Level PressureIn,VisibilityMPH,Wind Direction,Wind SpeedMPH,Gust SpeedMPH,PrecipitationIn,Events,Conditions,WindDirDegrees,DateUTC
12:15 AM,44.6,33.8,66,29.90,10.0,NNE,6.9,-,N/A,,Clear,20,2013-05-06 07:15:00
12:35 AM,46.4,35.6,66,29.89,10.0,ENE,10.4,-,N/A,,Clear,70,2013-05-06 07:35:00
12:55 AM,-9999,-9999,N/A,29.89,-9999.0,ENE,4.6,-,N/A,,Unknown,70,2013-05-06 07:55:00
1:15 AM,44.6,37.4,76,29.89,10.0,NNE,9.2,-,N/A,,Clear,20,2013-05-06 08:15:00
1:35 AM,44.6,37.4,76,29.89,10.0,East,4.6,-,N/A,,Clear,80,2013-05-06 08:35:00
1:55 AM,41.0,35.6,81,29.89,10.0,East,4.6,-,N/A,,Scattered Clouds,90,2013-05-06 08:55:00
2:15 AM,41.0,35.6,81,29.89,10.0,North,4.6,-,N/A,,Mostly Cloudy,350,2013-05-06 09:15:00
2:35 AM,44.6,35.6,71,29.89,10.0,Calm,Calm,-,N/A,,Mostly Cloudy,0,2013-05-06 09:35:00
2:55 AM,44.6,35.6,71,29.89,10.0,Calm,Calm,-,N/A,,Scattered Clouds,0,2013-05-06 09:55:00
3:15 AM,44.6,35.6,71,29.89,10.0,SE,6.9,-,N/A,,Mostly Cloudy,140,2013-05-06 10:15:00
3:55 AM,44.6,35.6,71,29.88,10.0,South,5.8,-,N/A,,Unknown,170,2013-05-06 10:55:00
4:15 AM,44.6,37.4,76,29.89,10.0,Calm,Calm,-,N/A,,Overcast,0,2013-05-06 11:15:00
4:35 AM,46.4,37.4,71,29.89,10.0,ESE,6.9,-,N/A,,Overcast,110,2013-05-06 11:35:00
4:55 AM,46.4,39.2,76,29.89,10.0,East,8.1,-,N/A,,Overcast,100,2013-05-06 11:55:00
5:15 AM,46.4,39.2,76,29.89,10.0,East,8.1,-,N/A,,Overcast,80,2013-05-06 12:15:00
5:35 AM,46.4,41.0,81,29.89,10.0,East,6.9,-,N/A,,Overcast,90,2013-05-06 12:35:00
5:55 AM,46.4,42.8,87,29.90,4.0,ENE,9.2,-,N/A,,Overcast,70,2013-05-06 12:55:00
6:15 AM,46.4,42.8,87,29.89,4.0,ESE,4.6,-,N/A,Rain,Light Rain,110,2013-05-06 13:15:00
6:35 AM,46.4,42.8,87,29.90,8.0,East,4.6,-,N/A,Rain,Light Rain,80,2013-05-06 13:35:00
6:55 AM,46.4,44.6,93,29.91,2.5,Calm,Calm,-,N/A,Rain,Light Rain,0,2013-05-06 13:55:00
7:15 AM,-9999,-9999,N/A,-9999,4.0,North,-9999.0,-,N/A,Rain,Light Rain,0,2013-05-06 14:15:00
7:35 AM,-9999,-9999,N/A,-9999,-9999.0,North,-9999.0,-,N/A,,Unknown,0,2013-05-06 14:35:00
7:55 AM,48.2,44.6,87,29.92,10.0,NNW,4.6,-,N/A,,Unknown,330,2013-05-06 14:55:00
8:15 AM,48.2,44.6,87,29.92,10.0,North,4.6,-,N/A,,Overcast,350,2013-05-06 15:15:00
8:55 AM,48.2,41.0,76,29.93,10.0,West,9.2,-,N/A,,Overcast,280,2013-05-06 15:55:00
9:15 AM,50.0,41.0,71,29.94,10.0,West,6.9,-,N/A,,Unknown,270,2013-05-06 16:15:00
9:35 AM,50.0,39.2,66,29.94,10.0,WSW,4.6,-,N/A,,Overcast,240,2013-05-06 16:35:00
9:55 AM,50.0,41.0,71,29.94,7.0,SE,11.5,16.1,N/A,Rain,Light Rain,140,2013-05-06 16:55:00
10:15 AM,53.6,44.6,72,29.95,9.0,SE,12.7,-,N/A,,Overcast,130,2013-05-06 17:15:00
10:35 AM,53.6,41.0,62,29.95,10.0,SSE,17.3,-,N/A,,Mostly Cloudy,150,2013-05-06 17:35:00
10:55 AM,-9999,-9999,N/A,-9999,9.0,North,-9999.0,-,N/A,,Unknown,0,2013-05-06 17:55:00
11:15 AM,53.6,39.2,58,29.95,10.0,SE,13.8,20.7,N/A,,Unknown,140,2013-05-06 18:15:00
11:35 AM,55.4,39.2,54,29.95,10.0,South,9.2,-,N/A,,Partly Cloudy,170,2013-05-06 18:35:00
11:55 AM,57.2,35.6,44,29.95,10.0,West,11.5,-,N/A,,Partly Cloudy,270,2013-05-06 18:55:00
12:15 PM,57.2,33.8,41,29.95,10.0,NW,4.6,-,N/A,,Partly Cloudy,320,2013-05-06 19:15:00
12:35 PM,55.4,35.6,47,29.95,10.0,NE,5.8,-,N/A,,Scattered Clouds,50,2013-05-06 19:35:00
12:55 PM,57.2,33.8,41,29.94,10.0,WNW,6.9,-,N/A,,Overcast,300,2013-05-06 19:55:00
1:15 PM,57.2,32.0,38,29.93,10.0,ENE,5.8,-,N/A,,Overcast,60,2013-05-06 20:15:00
1:35 PM,57.2,32.0,38,29.93,10.0,WSW,9.2,-,N/A,,Overcast,240,2013-05-06 20:35:00
1:55 PM,-9999,-9999,N/A,29.92,10.0,West,11.5,-,N/A,,Unknown,270,2013-05-06 20:55:00
2:15 PM,59.0,32.0,36,29.93,10.0,SW,12.7,17.3,N/A,,Unknown,220,2013-05-06 21:15:00
2:35 PM,60.8,32.0,34,29.92,10.0,SW,8.1,-,N/A,,Mostly Cloudy,230,2013-05-06 21:35:00
2:55 PM,60.8,32.0,34,29.92,10.0,SSW,5.8,17.3,N/A,,Mostly Cloudy,200,2013-05-06 21:55:00
3:15 PM,62.6,35.6,37,29.91,10.0,SE,8.1,29.9,N/A,,Overcast,130,2013-05-06 22:15:00
3:55 PM,59.0,35.6,42,29.91,10.0,South,4.6,-,N/A,,Overcast,190,2013-05-06 22:55:00
4:15 PM,59.0,33.8,39,29.91,10.0,WSW,6.9,-,N/A,,Overcast,250,2013-05-06 23:15:00
4:35 PM,57.2,33.8,41,29.91,10.0,Calm,Calm,-,N/A,,Overcast,0,2013-05-06 23:35:00
4:55 PM,57.2,33.8,41,29.91,10.0,NE,6.9,-,N/A,,Overcast,40,2013-05-06 23:55:00
5:15 PM,57.2,33.8,41,29.91,10.0,NNE,5.8,-,N/A,,Mostly Cloudy,30,2013-05-07 00:15:00
5:35 PM,59.0,33.8,39,29.91,10.0,NNW,4.6,-,N/A,,Scattered Clouds,330,2013-05-07 00:35:00
5:55 PM,57.2,33.8,41,29.91,10.0,West,6.9,-,N/A,,Scattered Clouds,270,2013-05-07 00:55:00
6:15 PM,57.2,33.8,41,29.91,10.0,Calm,Calm,-,N/A,,Partly Cloudy,0,2013-05-07 01:15:00
6:35 PM,57.2,33.8,41,29.91,10.0,WSW,10.4,-,N/A,,Scattered Clouds,240,2013-05-07 01:35:00
6:55 PM,57.2,33.8,41,29.91,10.0,WSW,10.4,-,N/A,,Partly Cloudy,240,2013-05-07 01:55:00
7:15 PM,55.4,35.6,47,29.91,10.0,WSW,11.5,-,N/A,,Partly Cloudy,250,2013-05-07 02:15:00
7:35 PM,53.6,35.6,51,29.92,10.0,WSW,11.5,-,N/A,,Clear,250,2013-05-07 02:35:00
7:55 PM,53.6,35.6,51,29.92,10.0,West,6.9,-,N/A,,Clear,270,2013-05-07 02:55:00
8:15 PM,50.0,35.6,58,29.93,10.0,West,8.1,-,N/A,,Clear,260,2013-05-07 03:15:00
8:35 PM,50.0,35.6,58,29.93,10.0,WSW,8.1,-,N/A,,Clear,250,2013-05-07 03:35:00
8:55 PM,50.0,35.6,58,29.94,10.0,West,8.1,-,N/A,,Clear,260,2013-05-07 03:55:00
9:15 PM,50.0,35.6,58,29.95,10.0,NNW,4.6,-,N/A,,Unknown,330,2013-05-07 04:15:00
9:35 PM,50.0,37.4,62,29.97,10.0,NW,10.4,-,N/A,,Scattered Clouds,310,2013-05-07 04:35:00
9:55 PM,50.0,39.2,66,29.98,10.0,NW,9.2,17.3,N/A,,Mostly Cloudy,310,2013-05-07 04:55:00
10:15 PM,48.2,39.2,71,29.98,10.0,WNW,10.4,-,N/A,,Mostly Cloudy,300,2013-05-07 05:15:00
10:35 PM,48.2,39.2,71,29.98,10.0,WNW,10.4,-,N/A,,Unknown,300,2013-05-07 05:35:00
10:55 PM,48.2,37.4,66,29.98,10.0,WNW,9.2,-,N/A,,Clear,300,2013-05-07 05:55:00
11:15 PM,48.2,39.2,71,29.98,10.0,WNW,8.1,-,N/A,,Clear,300,2013-05-07 06:15:00
11:35 PM,46.4,39.2,76,29.99,10.0,NW,8.1,-,N/A,,Partly Cloudy,310,2013-05-07 06:35:00
11:55 PM,46.4,39.2,76,29.99,10.0,NW,11.5,-,N/A,,Unknown,320,2013-05-07 06:55:00